createdAt,value
2023-05-22T00:01:26.444Z,18.18
2023-05-22T00:03:54.530Z,18.39
2023-05-22T00:06:22.111Z,18.64
2023-05-22T00:08:48.730Z,17.73
2023-05-22T00:11:15.569Z,17.40
2023-05-22T00:13:42.197Z,17.22
2023-05-22T00:16:08.901Z,18.53
2023-05-22T00:18:35.512Z,17.42
2023-05-22T00:21:02.143Z,17.41
2023-05-22T00:23:29.886Z,17.18
2023-05-22T00:25:56.574Z,18.33
2023-05-22T00:28:23.172Z,18.31
2023-05-22T00:30:49.773Z,18.75
2023-05-22T00:33:16.515Z,18.35
2023-05-22T00:35:43.148Z,18.00
2023-05-22T00:38:09.750Z,18.39
2023-05-22T00:40:36.459Z,19.29
2023-05-22T00:43:08.280Z,20.01
2023-05-22T00:45:35.063Z,21.05
2023-05-22T00:48:01.695Z,21.26
2023-05-22T00:50:28.517Z,21.20
2023-05-22T00:52:55.252Z,21.95
2023-05-22T00:55:21.878Z,22.62
2023-05-22T00:57:49.924Z,22.95
2023-05-22T01:00:17.309Z,22.00
2023-05-22T01:02:44.071Z,20.96
2023-05-22T01:05:12.924Z,21.05
2023-05-22T01:07:39.678Z,22.02
2023-05-22T01:10:07.147Z,22.28
2023-05-22T01:12:57.726Z,23.11
2023-05-22T01:15:31.700Z,23.51
2023-05-22T01:18:19.661Z,23.28
2023-05-22T01:21:10.264Z,23.16
2023-05-22T01:23:57.473Z,22.76
2023-05-22T01:26:56.939Z,22.52
2023-05-22T01:29:51.302Z,22.27
2023-05-22T01:32:23.173Z,23.01
2023-05-22T01:34:54.749Z,21.79
2023-05-22T01:37:23.374Z,22.04
2023-05-22T01:39:51.880Z,22.02
2023-05-22T01:42:18.936Z,22.23
2023-05-22T01:44:46.047Z,22.10
2023-05-22T01:47:12.703Z,20.81
2023-05-22T01:49:39.959Z,20.14
2023-05-22T01:52:53.990Z,20.45
2023-05-22T01:55:35.139Z,19.99
2023-05-22T01:58:14.155Z,20.23
2023-05-22T02:00:45.920Z,20.47
2023-05-22T02:03:19.259Z,20.80
2023-05-22T02:05:54.297Z,19.50
2023-05-22T02:08:22.677Z,20.62
2023-05-22T02:10:52.242Z,19.78
2023-05-22T02:13:19.016Z,19.28
2023-05-22T02:15:47.143Z,19.86
2023-05-22T02:18:13.803Z,19.98
2023-05-22T02:20:41.549Z,20.17
2023-05-22T02:23:08.479Z,19.42
2023-05-22T02:25:35.138Z,20.10
2023-05-22T02:28:01.733Z,20.93
2023-05-22T02:30:28.384Z,20.42
2023-05-22T02:32:57.305Z,19.80
2023-05-22T02:35:24.094Z,19.75
2023-05-22T02:37:51.947Z,18.80
2023-05-22T02:40:18.645Z,20.84
2023-05-22T02:42:45.280Z,19.70
2023-05-22T02:45:11.843Z,19.41
2023-05-22T02:47:38.565Z,20.38
2023-05-22T02:50:05.969Z,20.52
2023-05-22T02:52:32.569Z,20.03
2023-05-22T02:54:59.220Z,20.50
2023-05-22T02:57:25.799Z,20.02
2023-05-22T02:59:52.699Z,19.33
2023-05-22T03:02:19.851Z,19.71
2023-05-22T03:04:46.595Z,19.23
2023-05-22T03:07:13.212Z,19.32
2023-05-22T03:09:39.831Z,19.95
2023-05-22T03:12:06.654Z,19.70
2023-05-22T03:14:33.285Z,21.04
2023-05-22T03:17:00.188Z,21.45
2023-05-22T03:19:27.220Z,22.61
2023-05-22T03:21:53.990Z,22.54
2023-05-22T03:24:21.157Z,22.18
2023-05-22T03:26:47.809Z,22.85
2023-05-22T03:29:14.436Z,22.20
2023-05-22T03:31:41.119Z,22.23
2023-05-22T03:34:08.339Z,21.65
2023-05-22T03:36:35.385Z,21.06
2023-05-22T03:39:05.333Z,21.30
2023-05-22T03:41:31.975Z,21.93
2023-05-22T03:43:59.177Z,21.16
2023-05-22T03:46:26.576Z,22.08
2023-05-22T03:48:53.322Z,22.58
2023-05-22T03:51:20.489Z,21.45
2023-05-22T03:53:47.356Z,20.65
2023-05-22T03:56:14.375Z,21.63
2023-05-22T03:58:40.969Z,20.87
2023-05-22T04:01:09.991Z,20.50
2023-05-22T04:03:39.508Z,21.75
2023-05-22T04:06:07.494Z,20.38
2023-05-22T04:08:34.429Z,20.59
2023-05-22T04:11:01.383Z,20.89
2023-05-22T04:13:28.144Z,21.99
2023-05-22T04:15:56.685Z,20.60
2023-05-22T04:18:23.339Z,22.32
2023-05-22T04:20:51.844Z,21.75
2023-05-22T04:23:18.428Z,21.69
2023-05-22T04:25:47.725Z,20.42
2023-05-22T04:28:17.480Z,20.21
2023-05-22T04:30:44.682Z,21.11
2023-05-22T04:33:12.703Z,22.78
2023-05-22T04:35:40.841Z,23.72
2023-05-22T04:38:07.823Z,23.76
2023-05-22T04:40:34.570Z,24.10
2023-05-22T04:45:42.902Z,25.10
2023-05-22T04:48:14.487Z,24.86
2023-05-22T04:50:41.380Z,26.20
2023-05-22T04:53:08.281Z,25.90
2023-05-22T04:55:35.003Z,24.58
2023-05-22T04:58:03.090Z,25.60
2023-05-22T05:00:30.022Z,25.19
2023-05-22T05:02:58.093Z,25.04
2023-05-22T05:05:24.831Z,26.01
2023-05-22T05:07:51.807Z,26.37
2023-05-22T05:10:19.175Z,26.35
2023-05-22T05:12:46.003Z,26.80
2023-05-22T05:15:12.656Z,26.89
2023-05-22T05:17:39.385Z,26.39
2023-05-22T05:20:07.580Z,28.15
2023-05-22T05:22:34.320Z,26.79
2023-05-22T05:25:01.232Z,25.90
2023-05-22T05:27:27.842Z,27.15
2023-05-22T05:29:54.614Z,27.90
2023-05-22T05:32:21.314Z,26.66
2023-05-22T05:34:48.040Z,26.89
2023-05-22T05:37:14.671Z,27.45
2023-05-22T05:39:41.337Z,27.08
2023-05-22T05:42:08.243Z,28.67
2023-05-22T05:44:34.832Z,28.13
2023-05-22T05:47:01.916Z,28.12
2023-05-22T05:49:28.613Z,27.40
2023-05-22T05:51:55.426Z,26.66
2023-05-22T05:54:22.204Z,25.41
2023-05-22T05:56:48.903Z,25.42
2023-05-22T05:59:15.621Z,25.44
2023-05-22T06:01:44.611Z,23.97
2023-05-22T06:04:12.016Z,22.82
2023-05-22T06:06:39.467Z,23.68
2023-05-22T06:09:06.816Z,24.55
2023-05-22T06:11:34.342Z,22.59
2023-05-22T06:14:03.166Z,24.02
2023-05-22T06:16:29.998Z,22.73
2023-05-22T06:18:59.344Z,22.98
2023-05-22T06:21:26.477Z,22.16
2023-05-22T06:23:53.131Z,22.27
2023-05-22T06:26:19.999Z,23.54
2023-05-22T06:28:46.534Z,23.24
2023-05-22T06:31:13.165Z,23.12
2023-05-22T06:33:40.641Z,21.09
2023-05-22T06:36:08.853Z,22.40
2023-05-22T06:38:37.822Z,22.37
2023-05-22T06:41:05.108Z,22.01
2023-05-22T06:43:31.673Z,20.41
2023-05-22T06:45:58.347Z,20.33
2023-05-22T06:48:25.267Z,21.48
2023-05-22T06:50:51.851Z,21.59
2023-05-22T06:53:18.431Z,21.68
2023-05-22T06:55:44.989Z,21.68
2023-05-22T06:58:11.673Z,20.58
2023-05-22T07:00:38.681Z,21.74
2023-05-22T07:03:06.875Z,21.52
2023-05-22T07:05:33.733Z,20.48
2023-05-22T07:08:01.218Z,19.47
2023-05-22T07:10:27.993Z,19.98
2023-05-22T07:12:54.762Z,19.01
2023-05-22T07:15:21.383Z,19.85
2023-05-22T07:17:49.382Z,18.79
2023-05-22T07:20:16.792Z,18.59
2023-05-22T07:22:43.414Z,18.94
2023-05-22T07:25:10.224Z,18.47
2023-05-22T07:27:36.911Z,18.44
2023-05-22T07:30:04.189Z,17.79
2023-05-22T07:32:31.007Z,19.54
2023-05-22T07:34:57.911Z,19.73
2023-05-22T07:37:25.546Z,18.74
2023-05-22T07:39:52.202Z,19.25
2023-05-22T07:42:18.870Z,19.37
2023-05-22T07:44:45.611Z,19.75
2023-05-22T07:47:12.181Z,19.84
2023-05-22T07:49:38.785Z,19.34
2023-05-22T07:52:05.853Z,18.90
2023-05-22T07:54:32.501Z,18.87
2023-05-22T07:57:03.169Z,18.74
2023-05-22T07:59:29.802Z,19.45
2023-05-22T08:01:58.193Z,20.20
2023-05-22T08:04:26.135Z,20.70
2023-05-22T08:06:52.890Z,20.74
2023-05-22T08:09:21.221Z,20.76
2023-05-22T08:11:47.770Z,20.54
2023-05-22T08:14:14.334Z,19.89
2023-05-22T08:16:41.053Z,20.20
2023-05-22T08:19:08.186Z,19.28
2023-05-22T08:21:35.720Z,19.83
2023-05-22T08:24:02.350Z,19.75
2023-05-22T08:26:30.125Z,19.32
2023-05-22T08:28:58.659Z,19.45
2023-05-22T08:31:25.345Z,18.92
2023-05-22T08:33:51.941Z,19.06
2023-05-22T08:36:18.629Z,18.70
2023-05-22T08:38:45.437Z,18.52
2023-05-22T08:41:13.779Z,18.44
2023-05-22T08:43:41.840Z,18.68
2023-05-22T08:46:09.892Z,18.90
2023-05-22T08:48:37.877Z,18.75
2023-05-22T08:51:05.920Z,18.84
2023-05-22T08:53:36.927Z,18.41
2023-05-22T08:56:07.308Z,17.53
2023-05-22T08:58:35.927Z,17.89
2023-05-22T09:01:09.114Z,18.16
2023-05-22T09:03:36.808Z,17.15
2023-05-22T09:06:04.578Z,17.64
2023-05-22T09:08:31.216Z,18.32
2023-05-22T09:10:57.925Z,18.30
2023-05-22T09:13:30.899Z,19.20
2023-05-22T09:16:11.307Z,18.93
2023-05-22T09:18:39.457Z,18.71
2023-05-22T09:23:40.799Z,18.27
2023-05-22T09:26:10.397Z,19.48
2023-05-22T09:28:37.470Z,20.38
2023-05-22T09:31:04.581Z,20.22
2023-05-22T09:33:32.387Z,19.64
2023-05-22T09:35:59.274Z,21.71
2023-05-22T09:38:29.748Z,21.76
2023-05-22T09:40:57.229Z,23.35
2023-05-22T09:43:27.379Z,22.26
2023-05-22T09:46:01.894Z,21.70
2023-05-22T09:48:28.774Z,21.83
2023-05-22T09:50:56.091Z,20.03
2023-05-22T09:53:28.860Z,20.27
2023-05-22T09:56:00.401Z,19.22
2023-05-22T09:58:31.426Z,17.72
2023-05-22T10:01:00.348Z,17.92
2023-05-22T10:03:27.196Z,17.26
2023-05-22T10:05:58.223Z,17.18
2023-05-22T10:08:28.068Z,17.62
2023-05-22T10:10:55.795Z,17.94
2023-05-22T10:13:25.258Z,17.81
2023-05-22T10:15:52.563Z,18.21
2023-05-22T10:18:19.835Z,18.42
2023-05-22T10:20:49.299Z,17.45
2023-05-22T10:23:17.592Z,17.95
2023-05-22T10:25:46.976Z,17.54
2023-05-22T10:28:26.940Z,16.10
2023-05-22T10:31:04.768Z,16.64
2023-05-22T10:33:40.721Z,15.16
2023-05-22T10:36:45.438Z,15.81
2023-05-22T10:39:32.454Z,15.19
2023-05-22T10:41:59.113Z,15.62
2023-05-22T10:44:26.461Z,14.84
2023-05-22T10:46:53.079Z,14.95
2023-05-22T10:49:23.714Z,14.77
2023-05-22T10:51:56.299Z,15.04
2023-05-22T10:54:49.141Z,15.32
2023-05-22T10:57:17.729Z,16.86
2023-05-22T10:59:47.985Z,15.87
2023-05-22T11:02:29.869Z,16.59
2023-05-22T11:05:19.896Z,15.78
2023-05-22T11:07:46.554Z,15.49
2023-05-22T11:10:13.458Z,15.90
2023-05-22T11:12:41.377Z,15.98
2023-05-22T11:15:11.410Z,17.77
2023-05-22T11:17:51.362Z,17.14
2023-05-22T11:20:22.279Z,15.98
2023-05-22T11:23:06.945Z,16.39
2023-05-22T11:25:36.418Z,16.47
2023-05-22T11:28:05.587Z,15.91
2023-05-22T11:30:35.837Z,14.73
2023-05-22T11:33:02.929Z,13.96
2023-05-22T11:35:29.775Z,14.05
2023-05-22T11:37:56.933Z,13.92
2023-05-22T11:40:27.510Z,13.62
2023-05-22T11:42:54.259Z,12.90
2023-05-22T11:45:21.506Z,12.88
2023-05-22T11:47:49.055Z,12.57
2023-05-22T11:50:22.587Z,12.91
2023-05-22T11:52:53.825Z,12.11
2023-05-22T11:55:20.410Z,11.93
2023-05-22T11:57:47.980Z,12.00
2023-05-22T12:00:15.261Z,11.67
2023-05-22T12:02:48.967Z,11.37
2023-05-22T12:05:16.536Z,11.87
2023-05-22T12:07:43.664Z,11.50
2023-05-22T12:10:13.908Z,11.52
2023-05-22T12:12:40.852Z,10.99
2023-05-22T12:15:08.189Z,11.33
2023-05-22T12:17:37.761Z,12.82
2023-05-22T12:20:05.602Z,13.88
2023-05-22T12:22:32.294Z,13.72
2023-05-22T12:24:58.981Z,13.52
2023-05-22T12:27:33.359Z,12.88
2023-05-22T12:30:09.236Z,12.49
2023-05-22T12:32:35.884Z,12.13
2023-05-22T12:35:02.514Z,12.33
2023-05-22T12:37:29.180Z,12.36
2023-05-22T12:39:56.692Z,12.46
2023-05-22T12:42:26.871Z,12.60
2023-05-22T12:44:54.737Z,12.71
2023-05-22T12:47:22.367Z,12.48
2023-05-22T12:49:49.004Z,12.21
2023-05-22T12:52:15.867Z,11.89
2023-05-22T12:54:42.701Z,12.45
2023-05-22T12:57:09.473Z,12.76
2023-05-22T12:59:37.131Z,13.40
2023-05-22T13:02:07.089Z,13.35
2023-05-22T13:04:33.958Z,13.93
2023-05-22T13:07:00.903Z,13.90
2023-05-22T13:09:27.768Z,14.90
2023-05-22T13:11:55.584Z,15.67
2023-05-22T13:14:22.316Z,15.85
2023-05-22T13:16:48.894Z,16.44
2023-05-22T13:19:15.572Z,15.80
2023-05-22T13:21:42.819Z,15.64
2023-05-22T13:24:09.364Z,14.34
2023-05-22T13:26:35.954Z,14.13
2023-05-22T13:29:02.584Z,13.89
2023-05-22T13:31:29.448Z,13.94
2023-05-22T13:33:56.117Z,13.67
2023-05-22T13:36:22.734Z,13.70
2023-05-22T13:38:49.345Z,13.45
2023-05-22T13:41:17.650Z,13.01
2023-05-22T13:43:44.307Z,12.78
2023-05-22T13:46:10.948Z,12.33
2023-05-22T13:48:37.499Z,12.50
2023-05-22T13:51:04.634Z,12.12
2023-05-22T13:53:31.323Z,11.74
2023-05-22T13:55:57.945Z,11.69
2023-05-22T13:58:24.556Z,12.03
2023-05-22T14:00:51.180Z,11.44
2023-05-22T14:03:18.341Z,11.86
2023-05-22T14:05:45.663Z,11.46
2023-05-22T14:08:12.752Z,11.87
2023-05-22T14:10:39.610Z,11.41
2023-05-22T14:13:06.399Z,10.66
2023-05-22T14:15:33.046Z,10.08
2023-05-22T14:17:59.769Z,10.40
2023-05-22T14:20:26.408Z,10.03
2023-05-22T14:22:57.653Z,10.01
2023-05-22T14:25:27.520Z,9.98
2023-05-22T14:27:54.180Z,9.53
2023-05-22T14:30:20.926Z,9.50
2023-05-22T14:32:47.573Z,10.16
2023-05-22T14:35:14.247Z,10.08
2023-05-22T14:37:40.854Z,10.50
2023-05-22T14:40:08.150Z,10.15
2023-05-22T14:42:35.514Z,10.34
2023-05-22T14:45:03.384Z,10.67
2023-05-22T14:47:30.090Z,10.06
2023-05-22T14:50:06.313Z,10.01
2023-05-22T14:52:43.207Z,9.73
2023-05-22T14:55:09.793Z,9.81
2023-05-22T14:57:36.405Z,9.63
2023-05-22T15:00:04.878Z,9.26
2023-05-22T15:02:31.474Z,9.89
2023-05-22T15:04:58.122Z,9.51
2023-05-22T15:07:32.344Z,9.57
2023-05-22T15:10:09.674Z,9.82
2023-05-22T15:12:36.975Z,9.25
2023-05-22T15:15:04.232Z,9.20
2023-05-22T15:17:30.982Z,8.86
2023-05-22T15:19:57.665Z,8.21
2023-05-22T15:22:24.379Z,8.84
2023-05-22T15:25:05.522Z,8.02
2023-05-22T15:27:33.321Z,8.13
2023-05-22T15:29:59.962Z,7.50
2023-05-22T15:32:26.683Z,7.09
2023-05-22T15:34:53.345Z,6.84
2023-05-22T15:37:19.998Z,6.61
2023-05-22T15:39:46.737Z,6.67
2023-05-22T15:42:13.267Z,6.64
2023-05-22T15:44:39.814Z,6.13
2023-05-22T15:47:06.391Z,6.04
2023-05-22T15:49:32.993Z,5.62
2023-05-22T15:51:59.570Z,5.52
2023-05-22T15:54:26.250Z,5.46
2023-05-22T15:56:52.842Z,5.26
2023-05-22T15:59:19.460Z,5.21
2023-05-22T16:01:46.505Z,4.87
2023-05-22T16:04:13.139Z,5.32
2023-05-22T16:06:39.694Z,5.21
2023-05-22T16:09:06.422Z,5.20
2023-05-22T16:11:33.576Z,5.01
2023-05-22T16:14:00.207Z,5.00
2023-05-22T16:16:26.912Z,5.18
2023-05-22T16:18:53.675Z,5.50
2023-05-22T16:21:20.435Z,5.62
2023-05-22T16:23:46.998Z,5.61
2023-05-22T16:26:13.877Z,5.73
2023-05-22T16:28:40.486Z,5.45
2023-05-22T16:31:07.246Z,5.50
2023-05-22T16:33:36.276Z,5.46
2023-05-22T16:36:03.659Z,5.65
2023-05-22T16:38:30.195Z,5.73
2023-05-22T16:40:56.851Z,5.28
2023-05-22T16:43:23.485Z,5.55
2023-05-22T16:45:51.196Z,5.33
2023-05-22T16:48:18.482Z,5.62
2023-05-22T16:50:46.557Z,5.49
2023-05-22T16:53:16.635Z,5.84
2023-05-22T16:55:43.535Z,5.46
2023-05-22T16:58:11.430Z,5.50
2023-05-22T17:00:39.967Z,5.66
2023-05-22T17:03:08.251Z,5.64
2023-05-22T17:05:36.132Z,5.47
2023-05-22T17:08:03.050Z,5.80
2023-05-22T17:10:29.871Z,5.77
2023-05-22T17:12:56.497Z,5.98
2023-05-22T17:15:23.518Z,6.18
2023-05-22T17:17:50.593Z,6.71
2023-05-22T17:20:17.341Z,7.04
2023-05-22T17:22:43.996Z,6.91
2023-05-22T17:25:10.877Z,7.09
2023-05-22T17:27:37.493Z,7.13
2023-05-22T17:30:05.509Z,7.19
2023-05-22T17:32:32.283Z,7.36
2023-05-22T17:34:59.202Z,7.25
2023-05-22T17:37:25.758Z,7.45
2023-05-22T17:39:53.194Z,7.59
2023-05-22T17:42:19.809Z,7.47
2023-05-22T17:44:46.360Z,7.49
2023-05-22T17:47:13.436Z,6.92
2023-05-22T17:49:40.089Z,7.44
2023-05-22T17:52:08.530Z,7.86
2023-05-22T17:54:35.706Z,7.68
2023-05-22T17:57:04.123Z,7.89
2023-05-22T17:59:32.219Z,7.76
2023-05-22T18:01:58.932Z,6.96
2023-05-22T18:04:25.534Z,7.87
2023-05-22T18:06:52.247Z,8.00
2023-05-22T18:09:18.866Z,7.87
2023-05-22T18:11:45.612Z,7.87
2023-05-22T18:14:12.235Z,7.73
2023-05-22T18:16:38.853Z,8.96
2023-05-22T18:19:05.514Z,9.12
2023-05-22T18:21:32.279Z,9.37
2023-05-22T18:23:59.069Z,9.37
2023-05-22T18:26:26.805Z,9.78
2023-05-22T18:28:53.393Z,9.41
2023-05-22T18:31:20.229Z,9.60
2023-05-22T18:33:47.088Z,9.06
2023-05-22T18:36:13.804Z,8.52
2023-05-22T18:38:40.580Z,8.93
2023-05-22T18:41:07.839Z,8.71
2023-05-22T18:43:34.486Z,8.44
2023-05-22T18:46:01.211Z,8.90
2023-05-22T18:48:28.249Z,8.41
2023-05-22T18:50:57.333Z,8.43
2023-05-22T18:53:27.284Z,8.52
2023-05-22T18:55:54.146Z,9.10
2023-05-22T18:58:21.045Z,9.11
2023-05-22T19:00:47.902Z,9.05
2023-05-22T19:03:14.492Z,9.13
2023-05-22T19:05:41.378Z,9.78
2023-05-22T19:08:07.958Z,9.69
2023-05-22T19:10:34.623Z,9.20
2023-05-22T19:13:01.216Z,8.85
2023-05-22T19:15:27.848Z,8.91
2023-05-22T19:17:54.475Z,8.88
2023-05-22T19:20:22.928Z,9.64
2023-05-22T19:22:50.907Z,9.09
2023-05-22T19:25:17.745Z,9.08
2023-05-22T19:27:44.681Z,8.95
2023-05-22T19:30:11.604Z,9.09
2023-05-22T19:32:38.240Z,9.24
2023-05-22T19:35:05.079Z,9.30
2023-05-22T19:37:31.700Z,9.88
2023-05-22T19:39:58.259Z,9.53
2023-05-22T19:42:24.858Z,9.47
2023-05-22T19:44:51.452Z,9.63
2023-05-22T19:47:18.062Z,9.80
2023-05-22T19:49:44.806Z,9.76
2023-05-22T19:52:11.412Z,10.35
2023-05-22T19:54:38.776Z,10.70
2023-05-22T19:57:05.590Z,10.36
2023-05-22T19:59:34.706Z,10.40
2023-05-22T20:02:03.196Z,10.86
2023-05-22T20:04:30.331Z,11.02
2023-05-22T20:06:58.654Z,12.10
2023-05-22T20:09:28.025Z,12.57
2023-05-22T20:11:54.566Z,12.00
2023-05-22T20:14:21.612Z,12.14
2023-05-22T20:16:48.328Z,12.59
2023-05-22T20:19:15.153Z,11.95
2023-05-22T20:21:41.805Z,11.89
2023-05-22T20:24:20.793Z,11.92
2023-05-22T20:26:50.423Z,11.80
2023-05-22T20:29:17.872Z,12.52
2023-05-22T20:31:45.940Z,12.64
2023-05-22T20:34:15.524Z,12.68
2023-05-22T20:36:44.842Z,12.23
2023-05-22T20:39:11.921Z,13.78
2023-05-22T20:41:38.587Z,13.64
2023-05-22T20:44:06.337Z,12.84
2023-05-22T20:46:33.175Z,12.48
2023-05-22T20:48:59.810Z,10.94
2023-05-22T20:51:32.400Z,9.91
2023-05-22T20:53:59.952Z,8.96
2023-05-22T20:56:27.165Z,8.96
2023-05-22T20:58:54.865Z,9.03
2023-05-22T21:01:22.066Z,8.85
2023-05-22T21:03:50.004Z,8.57
2023-05-22T21:06:16.818Z,7.47
2023-05-22T21:08:43.438Z,7.01
2023-05-22T21:11:10.036Z,7.32
2023-05-22T21:13:36.656Z,7.70
2023-05-22T21:16:03.265Z,6.79
2023-05-22T21:18:29.925Z,6.40
2023-05-22T21:20:59.198Z,6.21
2023-05-22T21:23:25.759Z,6.22
2023-05-22T21:25:52.369Z,6.02
2023-05-22T21:28:18.974Z,6.08
2023-05-22T21:30:45.580Z,5.91
2023-05-22T21:33:12.190Z,5.81
2023-05-22T21:35:38.859Z,6.56
2023-05-22T21:38:05.482Z,6.39
2023-05-22T21:40:32.079Z,6.60
2023-05-22T21:42:58.624Z,6.33
2023-05-22T21:45:25.236Z,6.44
2023-05-22T21:47:51.948Z,6.67
2023-05-22T21:50:18.893Z,7.02
2023-05-22T21:52:45.560Z,6.86
2023-05-22T21:55:12.202Z,6.75
2023-05-22T21:57:38.841Z,7.47
2023-05-22T22:00:05.860Z,7.32
2023-05-22T22:02:32.568Z,7.77
2023-05-22T22:04:59.170Z,7.64
2023-05-22T22:07:25.768Z,7.53
2023-05-22T22:09:52.298Z,7.40
2023-05-22T22:12:18.905Z,7.61
2023-05-22T22:14:45.445Z,7.76
2023-05-22T22:17:12.029Z,7.64
2023-05-22T22:19:38.721Z,8.45
2023-05-22T22:22:05.669Z,8.24
2023-05-22T22:24:32.421Z,7.93
2023-05-22T22:26:58.962Z,8.18
2023-05-22T22:29:26.081Z,7.86
2023-05-22T22:31:52.976Z,7.87
2023-05-22T22:34:19.695Z,7.90
2023-05-22T22:36:46.407Z,8.69
2023-05-22T22:39:13.179Z,8.65
2023-05-22T22:41:39.814Z,8.92
2023-05-22T22:44:06.383Z,9.20
2023-05-22T22:46:33.065Z,9.69
2023-05-22T22:49:01.895Z,10.11
2023-05-22T22:51:31.766Z,9.69
2023-05-22T22:53:58.551Z,10.03
2023-05-22T22:56:29.056Z,10.36
2023-05-22T22:58:56.918Z,10.58
2023-05-22T23:01:24.218Z,10.53
2023-05-22T23:03:51.354Z,11.01
2023-05-22T23:06:18.439Z,10.87
2023-05-22T23:08:45.697Z,10.34
2023-05-22T23:11:12.478Z,10.77
2023-05-22T23:13:41.070Z,11.07
2023-05-22T23:16:08.095Z,11.07
2023-05-22T23:18:34.966Z,11.08
2023-05-22T23:21:01.546Z,11.09
2023-05-22T23:23:28.198Z,11.37
2023-05-22T23:25:56.083Z,11.65
2023-05-22T23:28:23.983Z,11.48
2023-05-22T23:30:51.790Z,11.19
2023-05-22T23:33:18.492Z,11.27
2023-05-22T23:35:45.323Z,11.49
2023-05-22T23:38:11.899Z,12.37
2023-05-22T23:40:38.563Z,12.23
2023-05-22T23:43:05.108Z,12.84
2023-05-22T23:45:31.649Z,12.56
2023-05-22T23:47:58.261Z,11.79
2023-05-22T23:50:24.911Z,12.10
2023-05-22T23:52:51.463Z,11.29
2023-05-22T23:55:18.056Z,10.55
2023-05-22T23:57:44.721Z,10.19
